Time;durP1;ratioP1;P1;durP2;ratioP2;P2;SDS_P1;SDS_P2;PMS_P1;PMS_P2;Temp;Humidity;BMP_temperature;BMP_pressure;BME280_temperature;BME280_humidity;BME280_pressure;Samples;Min_cycle;Max_cycle;Signal;HPM_P1;HPM_P2
2024/02/16 00:00:01;;;;;;;;;;;;;;;19.42;50.17;101098.63;2070670;28;2371;-70
2024/02/16 00:01:03;;;;;;;;;;;;;;;19.42;50.09;101100.72;2071004;28;6007;-71
2024/02/16 00:02:04;;;;;;;;;;;;;;;19.40;50.21;101103.50;2072868;28;1918;-70
2024/02/16 00:03:05;;;;;;;;;;;;;;;19.40;50.42;101106.38;2070593;28;1895;-70
2024/02/16 00:04:07;;;;;;;;;;;;;;;19.39;50.22;101102.00;2070217;28;2344;-69
2024/02/16 00:05:11;;;;;;;;;;;;;;;19.38;50.18;101106.28;2067436;28;2479;-70
2024/02/16 00:06:12;;;;;;;;;;;;;;;19.40;50.14;101103.50;2070350;28;1730;-71
2024/02/16 00:07:14;;;;;;;;;;;;;;;19.38;50.23;101094.78;2067474;28;1993;-70
2024/02/16 00:08:16;;;;;;;;;;;;;;;19.40;50.21;101097.75;2069332;28;2124;-70
2024/02/16 00:09:17;;;;;;;;;;;;;;;19.40;50.18;101097.75;2069264;28;2105;-70
2024/02/16 00:10:20;;;;;;;;;;;;;;;19.38;50.26;101091.91;2070531;28;2122;-70
2024/02/16 00:11:21;;;;;;;;;;;;;;;19.38;50.27;101098.41;2071117;28;2423;-70
2024/02/16 00:12:23;;;;;;;;;;;;;;;19.37;50.24;101094.03;2069221;28;2069;-70
2024/02/16 00:13:24;;;;;;;;;;;;;;;19.37;50.22;101087.53;2067925;28;2020;-70
2024/02/16 00:14:25;;;;;;;;;;;;;;;19.36;50.22;101091.81;2069034;28;2080;-70
2024/02/16 00:15:27;;;;;;;;;;;;;;;19.36;50.29;101091.81;2070231;28;2142;-71
2024/02/16 00:16:28;;;;;;;;;;;;;;;19.36;50.31;101097.56;2070833;28;2150;-70
2024/02/16 00:17:29;;;;;;;;;;;;;;;19.35;50.26;101093.91;2070191;28;2141;-71
2024/02/16 00:18:31;;;;;;;;;;;;;;;19.35;50.30;101090.31;2069995;28;2222;-71
2024/02/16 00:19:33;;;;;;;;;;;;;;;19.35;50.22;101096.03;2068106;28;1772;-70
2024/02/16 00:20:34;;;;;;;;;;;;;;;19.35;50.19;101087.44;2071799;28;2253;-70
2024/02/16 00:21:35;;;;;;;;;;;;;;;19.33;49.98;101087.31;2068913;28;2158;-70
2024/02/16 00:22:37;;;;;;;;;;;;;;;19.35;50.24;101090.31;2070867;28;2074;-70
2024/02/16 00:23:38;;;;;;;;;;;;;;;19.35;50.18;101091.03;2070267;28;2074;-71
2024/02/16 00:24:39;;;;;;;;;;;;;;;19.35;50.21;101090.31;2070844;28;2072;-72
2024/02/16 00:25:41;;;;;;;;;;;;;;;19.36;50.10;101092.53;2070266;28;2429;-71
2024/02/16 00:26:45;;;;;;;;;;;;;;;19.36;50.22;101091.81;2070980;28;2108;-71
2024/02/16 00:27:46;;;;;;;;;;;;;;;19.36;50.11;101091.81;2068212;28;2295;-70
2024/02/16 00:28:48;;;;;;;;;;;;;;;19.36;49.98;101091.81;2069760;28;2120;-70
2024/02/16 00:29:50;;;;;;;;;;;;;;;19.36;50.14;101088.94;2070342;28;2138;-70
2024/02/16 00:30:51;;;;;;;;;;;;;;;19.35;50.22;101091.03;2069529;28;6013;-70
2024/02/16 00:31:52;;;;;;;;;;;;;;;19.35;50.04;101096.03;2071065;28;2243;-70
2024/02/16 00:32:54;;;;;;;;;;;;;;;19.36;50.05;101094.69;2072041;28;1933;-70
2024/02/16 00:33:56;;;;;;;;;;;;;;;19.37;50.13;101093.28;2072213;28;2032;-70
2024/02/16 00:34:57;;;;;;;;;;;;;;;19.35;50.10;101088.16;2068954;28;1751;-69
2024/02/16 00:35:59;;;;;;;;;;;;;;;19.36;50.20;101091.81;2067534;28;1609;-70
2024/02/16 00:37:00;;;;;;;;;;;;;;;19.36;50.19;101097.56;2069409;28;2174;-70
2024/02/16 00:38:01;;;;;;;;;;;;;;;19.35;50.00;101091.03;2067719;28;2161;-69
2024/02/16 00:39:03;;;;;;;;;;;;;;;19.33;50.12;101082.31;2068944;28;2105;-70
2024/02/16 00:40:06;;;;;;;;;;;;;;;19.34;50.13;101092.44;2071344;28;1676;-69
2024/02/16 00:41:07;;;;;;;;;;;;;;;19.34;49.99;101094.56;2070273;28;2326;-69
2024/02/16 00:42:09;;;;;;;;;;;;;;;19.35;50.16;101099.66;2071106;28;2146;-69
2024/02/16 00:43:11;;;;;;;;;;;;;;;19.34;50.10;101089.56;2068783;28;2167;-69
2024/02/16 00:44:12;;;;;;;;;;;;;;;19.34;50.05;101097.44;2068993;28;2137;-70
2024/02/16 00:45:13;;;;;;;;;;;;;;;19.33;50.13;101088.06;2070482;28;2070;-72
2024/02/16 00:46:15;;;;;;;;;;;;;;;19.34;50.09;101094.56;2068542;28;1955;-71
2024/02/16 00:47:17;;;;;;;;;;;;;;;19.33;50.05;101084.44;2068647;28;2058;-72
2024/02/16 00:48:18;;;;;;;;;;;;;;;19.32;50.22;101092.31;2070602;28;2076;-71
2024/02/16 00:49:20;;;;;;;;;;;;;;;19.32;50.16;101086.56;2071336;28;2077;-71
2024/02/16 00:50:23;;;;;;;;;;;;;;;19.32;50.09;101080.09;2069828;28;1929;-71
2024/02/16 00:51:25;;;;;;;;;;;;;;;19.32;50.11;101086.56;2070405;28;1656;-70
2024/02/16 00:52:27;;;;;;;;;;;;;;;19.33;50.16;101070.09;2068518;28;2096;-70
2024/02/16 00:53:29;;;;;;;;;;;;;;;19.33;50.07;101088.06;2070380;28;2066;-70
2024/02/16 00:54:30;;;;;;;;;;;;;;;19.32;50.13;101080.09;2068050;28;1699;-71
2024/02/16 00:55:32;;;;;;;;;;;;;;;19.32;50.11;101074.34;2070671;28;2000;-71
2024/02/16 00:56:33;;;;;;;;;;;;;;;19.31;50.08;101079.34;2068350;28;2075;-71
2024/02/16 00:57:34;;;;;;;;;;;;;;;19.31;50.15;101085.09;2068435;28;2130;-71
2024/02/16 00:58:36;;;;;;;;;;;;;;;19.29;50.09;101082.13;2068556;28;2081;-71
2024/02/16 00:59:37;;;;;;;;;;;;;;;19.29;49.98;101076.38;2069474;28;2161;-71
2024/02/16 01:00:39;;;;;;;;;;;;;;;19.30;50.11;101080.72;2069305;28;6285;-70
2024/02/16 01:01:40;;;;;;;;;;;;;;;19.30;50.12;101079.97;2070485;28;2201;-70
2024/02/16 01:02:42;;;;;;;;;;;;;;;19.30;50.08;101079.97;2070587;28;2101;-70
2024/02/16 01:03:43;;;;;;;;;;;;;;;19.30;50.12;101062.75;2066398;28;1700;-70
2024/02/16 01:04:46;;;;;;;;;;;;;;;19.30;50.04;101065.63;2067976;28;1866;-70
2024/02/16 01:05:48;;;;;;;;;;;;;;;19.30;50.02;101066.38;2069811;28;1971;-70
2024/02/16 01:06:49;;;;;;;;;;;;;;;19.30;49.99;101060.63;2069345;28;2065;-70
2024/02/16 01:07:51;;;;;;;;;;;;;;;19.29;50.17;101067.00;2068861;28;2105;-71
2024/02/16 01:08:53;;;;;;;;;;;;;;;19.29;50.05;101070.63;2067010;28;2112;-70
2024/02/16 01:09:56;;;;;;;;;;;;;;;19.29;50.07;101069.88;2070456;28;2156;-70
2024/02/16 01:10:57;;;;;;;;;;;;;;;19.29;50.17;101067.00;2067436;28;2132;-70
2024/02/16 01:11:59;;;;;;;;;;;;;;;19.29;50.09;101075.59;2069786;28;1894;-70
2024/02/16 01:13:00;;;;;;;;;;;;;;;19.28;50.12;101068.38;2068911;28;1874;-70
2024/02/16 01:14:02;;;;;;;;;;;;;;;19.27;50.05;101064.03;2068689;28;1627;-70
2024/02/16 01:15:03;;;;;;;;;;;;;;;19.28;50.08;101062.66;2068194;28;2251;-70
2024/02/16 01:16:05;;;;;;;;;;;;;;;19.29;50.05;101067.00;2070054;28;2185;-70
2024/02/16 01:17:06;;;;;;;;;;;;;;;19.30;49.90;101060.63;2070823;28;2089;-70
2024/02/16 01:18:08;;;;;;;;;;;;;;;19.29;50.04;101064.13;2071714;28;2071;-70
2024/02/16 01:19:09;;;;;;;;;;;;;;;19.29;50.04;101064.13;2068132;28;2136;-70
2024/02/16 01:20:12;;;;;;;;;;;;;;;19.30;50.05;101062.75;2070972;28;1638;-70
2024/02/16 01:21:14;;;;;;;;;;;;;;;19.30;50.04;101065.63;2069668;28;1455;-70
2024/02/16 01:22:15;;;;;;;;;;;;;;;19.29;50.05;101058.38;2071021;28;2002;-70
2024/02/16 01:23:16;;;;;;;;;;;;;;;19.24;50.03;101046.69;2070505;28;2128;-70
2024/02/16 01:24:19;;;;;;;;;;;;;;;19.28;50.08;101062.66;2066986;28;2125;-70
2024/02/16 01:25:21;;;;;;;;;;;;;;;19.28;50.10;101056.91;2070773;28;2078;-71
2024/02/16 01:26:22;;;;;;;;;;;;;;;19.29;50.06;101052.63;2067947;28;1926;-69
2024/02/16 01:27:23;;;;;;;;;;;;;;;19.30;49.95;101054.16;2070754;28;2080;-71
2024/02/16 01:28:25;;;;;;;;;;;;;;;19.29;50.05;101058.38;2069615;28;2555;-70
2024/02/16 01:29:26;;;;;;;;;;;;;;;19.25;50.13;101053.91;2067774;28;2048;-70
2024/02/16 01:30:28;;;;;;;;;;;;;;;19.25;50.13;101053.91;2069829;28;6121;-70
2024/02/16 01:31:29;;;;;;;;;;;;;;;19.24;49.85;101049.56;2071086;28;2101;-70
2024/02/16 01:32:31;;;;;;;;;;;;;;;19.27;50.08;101049.69;2068517;28;2110;-70
2024/02/16 01:33:34;;;;;;;;;;;;;;;19.27;50.04;101049.69;2070107;28;2184;-71
2024/02/16 01:34:37;;;;;;;;;;;;;;;19.27;50.00;101049.69;2070286;28;1740;-70
2024/02/16 01:35:38;;;;;;;;;;;;;;;19.25;49.99;101048.19;2066489;28;1692;-71
2024/02/16 01:36:40;;;;;;;;;;;;;;;19.25;50.07;101042.44;2070274;28;1800;-71
2024/02/16 01:37:41;;;;;;;;;;;;;;;19.25;50.02;101045.31;2067764;28;2146;-70
2024/02/16 01:38:42;;;;;;;;;;;;;;;19.24;50.05;101040.97;2070667;28;2069;-70
2024/02/16 01:39:44;;;;;;;;;;;;;;;19.25;50.19;101042.44;2070046;28;1858;-70
2024/02/16 01:40:45;;;;;;;;;;;;;;;19.25;50.07;101033.81;2070998;28;1929;-70
2024/02/16 01:41:47;;;;;;;;;;;;;;;19.25;50.06;101030.94;2066120;28;2488;-70
2024/02/16 01:42:48;;;;;;;;;;;;;;;19.25;49.97;101033.09;2070529;28;2413;-70
2024/02/16 01:43:52;;;;;;;;;;;;;;;19.23;50.00;101033.72;2068442;28;2101;-70
2024/02/16 01:44:53;;;;;;;;;;;;;;;19.23;49.94;101038.72;2072510;28;2033;-70
2024/02/16 01:45:57;;;;;;;;;;;;;;;19.22;50.04;101029.34;2070533;28;2141;-70
2024/02/16 01:46:58;;;;;;;;;;;;;;;19.22;49.98;101020.75;2067167;28;2172;-70
2024/02/16 01:48:00;;;;;;;;;;;;;;;19.21;50.06;101022.13;2071043;28;2283;-70
2024/02/16 01:49:02;;;;;;;;;;;;;;;19.21;49.96;101024.97;2067959;28;2198;-70
2024/02/16 01:50:04;;;;;;;;;;;;;;;19.22;49.96;101029.34;2070324;28;1633;-70
2024/02/16 01:51:07;;;;;;;;;;;;;;;19.23;49.94;101035.84;2071077;28;1668;-70
2024/02/16 01:52:09;;;;;;;;;;;;;;;19.23;49.90;101022.22;2069398;28;2156;-70
2024/02/16 01:53:11;;;;;;;;;;;;;;;19.24;49.92;101017.22;2068784;28;2056;-70
2024/02/16 01:54:13;;;;;;;;;;;;;;;19.23;49.86;101022.22;2070957;28;2075;-71
2024/02/16 01:55:17;;;;;;;;;;;;;;;19.24;49.94;101018.00;2068590;28;1608;-70
2024/02/16 01:56:20;;;;;;;;;;;;;;;19.23;49.95;101015.75;2066934;28;1640;-70
2024/02/16 01:57:22;;;;;;;;;;;;;;;19.21;49.95;101022.13;2070342;28;2491;-70
2024/02/16 01:58:23;;;;;;;;;;;;;;;19.22;49.94;101012.13;2067178;28;2153;-70
2024/02/16 01:59:25;;;;;;;;;;;;;;;19.21;49.90;101016.38;2071361;28;2176;-70
2024/02/16 02:00:26;;;;;;;;;;;;;;;19.21;49.93;101007.75;2069273;28;6091;-70
2024/02/16 02:01:28;;;;;;;;;;;;;;;19.22;49.98;101009.25;2069350;28;2072;-70
2024/02/16 02:02:29;;;;;;;;;;;;;;;19.22;49.99;101003.53;2069597;28;1593;-70
2024/02/16 02:03:30;;;;;;;;;;;;;;;19.21;49.98;101002.03;2068918;28;2078;-70
2024/02/16 02:04:32;;;;;;;;;;;;;;;19.20;49.98;101006.28;2066892;28;2283;-70
2024/02/16 02:05:33;;;;;;;;;;;;;;;19.22;49.96;100999.91;2069509;28;1624;-70
2024/02/16 02:06:36;;;;;;;;;;;;;;;19.19;49.98;101001.91;2070552;28;1616;-70
2024/02/16 02:07:52;;;;;;;;;;;;;;;19.21;49.91;100993.41;2066579;28;2094;-70
2024/02/16 02:08:54;;;;;;;;;;;;;;;19.21;49.87;100995.53;2068370;28;2257;-70
2024/02/16 02:09:55;;;;;;;;;;;;;;;19.20;49.86;101002.69;2065842;28;1968;-70
2024/02/16 02:10:57;;;;;;;;;;;;;;;19.20;49.70;100994.06;2069310;28;1725;-70
2024/02/16 02:11:58;;;;;;;;;;;;;;;19.20;49.87;100994.78;2069516;28;2120;-70
2024/02/16 02:13:00;;;;;;;;;;;;;;;19.21;49.88;100990.53;2069230;28;2105;-70
2024/02/16 02:14:01;;;;;;;;;;;;;;;19.20;49.93;100988.31;2067536;28;2139;-70
2024/02/16 02:15:03;;;;;;;;;;;;;;;19.19;49.88;100990.44;2068519;28;2214;-70
2024/02/16 02:16:05;;;;;;;;;;;;;;;19.19;49.93;100987.56;2069871;28;2395;-69
2024/02/16 02:17:07;;;;;;;;;;;;;;;19.19;49.94;100987.56;2071159;28;1588;-69
2024/02/16 02:18:08;;;;;;;;;;;;;;;19.19;49.84;100987.56;2071321;28;1891;-70
2024/02/16 02:19:10;;;;;;;;;;;;;;;19.19;49.93;100987.56;2070689;28;2023;-70
2024/02/16 02:20:11;;;;;;;;;;;;;;;19.18;49.91;100979.59;2074039;28;1556;-69
2024/02/16 02:21:14;;;;;;;;;;;;;;;19.18;49.82;100986.06;2068541;28;1620;-70
2024/02/16 02:22:17;;;;;;;;;;;;;;;19.18;49.92;100986.06;2068777;28;1795;-70
2024/02/16 02:23:19;;;;;;;;;;;;;;;19.18;49.91;100986.06;2068948;28;2141;-69
2024/02/16 02:24:21;;;;;;;;;;;;;;;19.20;49.77;100989.06;2068808;28;2072;-70
2024/02/16 02:25:22;;;;;;;;;;;;;;;19.20;49.86;100977.56;2068168;28;2029;-69
2024/02/16 02:26:28;;;;;;;;;;;;;;;19.18;49.88;100983.22;2071260;28;1517;-69
2024/02/16 02:27:29;;;;;;;;;;;;;;;19.19;49.86;100981.81;2063557;28;2110;-70
2024/02/16 02:28:30;;;;;;;;;;;;;;;19.17;49.82;100978.84;2067750;28;2085;-70
2024/02/16 02:29:33;;;;;;;;;;;;;;;19.18;49.81;100973.84;2068761;28;2090;-70
2024/02/16 02:30:34;;;;;;;;;;;;;;;19.18;49.82;100986.06;2067062;28;8595;-69
2024/02/16 02:31:36;;;;;;;;;;;;;;;19.17;49.97;100973.13;2065723;28;2137;-70
2024/02/16 02:32:37;;;;;;;;;;;;;;;19.16;49.90;100965.88;2071146;28;1636;-70
2024/02/16 02:33:38;;;;;;;;;;;;;;;19.15;49.81;100970.13;2070279;28;2188;-69
2024/02/16 02:34:40;;;;;;;;;;;;;;;19.15;49.88;100970.13;2067134;28;2125;-70
2024/02/16 02:35:41;;;;;;;;;;;;;;;19.15;49.83;100964.41;2067704;28;2157;-70
2024/02/16 02:36:44;;;;;;;;;;;;;;;19.17;49.85;100973.13;2064651;28;2330;-71
2024/02/16 02:37:45;;;;;;;;;;;;;;;19.16;49.96;100971.63;2068232;28;2318;-70
2024/02/16 02:38:47;;;;;;;;;;;;;;;19.14;49.82;100968.63;2065896;28;1748;-70
2024/02/16 02:39:48;;;;;;;;;;;;;;;19.15;49.87;100970.13;2070275;28;1939;-70
2024/02/16 02:40:50;;;;;;;;;;;;;;;19.16;49.88;100970.88;2070815;28;2041;-71
2024/02/16 02:41:51;;;;;;;;;;;;;;;19.16;49.77;100968.75;2066061;28;2059;-70
2024/02/16 02:42:53;;;;;;;;;;;;;;;19.15;49.87;100964.41;2065998;28;2100;-70
2024/02/16 02:43:54;;;;;;;;;;;;;;;19.16;49.82;100959.41;2070389;28;2129;-70
2024/02/16 02:44:56;;;;;;;;;;;;;;;19.15;49.79;100969.38;2066861;28;2062;-70
2024/02/16 02:45:57;;;;;;;;;;;;;;;19.15;49.92;100963.63;2070098;28;2173;-70
2024/02/16 02:46:58;;;;;;;;;;;;;;;19.15;49.74;100964.41;2069080;28;2012;-70
2024/02/16 02:48:00;;;;;;;;;;;;;;;19.16;49.86;100962.25;2069593;28;2110;-70
2024/02/16 02:49:02;;;;;;;;;;;;;;;19.15;49.84;100970.13;2070625;28;2090;-70
2024/02/16 02:50:05;;;;;;;;;;;;;;;19.15;49.80;100967.28;2069732;28;2030;-70
2024/02/16 02:51:06;;;;;;;;;;;;;;;19.15;49.86;100967.28;2070438;28;2472;-71
2024/02/16 02:52:09;;;;;;;;;;;;;;;19.16;49.83;100960.13;2067315;28;2118;-69
2024/02/16 02:53:10;;;;;;;;;;;;;;;19.16;49.75;100965.88;2068836;28;2097;-70
2024/02/16 02:54:11;;;;;;;;;;;;;;;19.17;49.67;100960.88;2065932;28;2015;-70
2024/02/16 02:55:13;;;;;;;;;;;;;;;19.14;49.84;100971.50;2067484;28;2097;-70
2024/02/16 02:56:15;;;;;;;;;;;;;;;19.14;49.85;100968.63;2069936;28;2043;-70
2024/02/16 02:57:16;;;;;;;;;;;;;;;19.14;49.84;100967.91;2064128;28;2191;-70
2024/02/16 02:58:17;;;;;;;;;;;;;;;19.14;49.77;100971.50;2068307;28;2067;-70
2024/02/16 02:59:19;;;;;;;;;;;;;;;19.14;49.74;100965.75;2068281;28;1735;-70
2024/02/16 03:00:20;;;;;;;;;;;;;;;19.14;49.79;100967.91;2067344;28;6341;-69
2024/02/16 03:01:22;;;;;;;;;;;;;;;19.14;49.73;100965.75;2069041;28;2169;-70
2024/02/16 03:02:23;;;;;;;;;;;;;;;19.14;49.76;100968.63;2068960;28;1907;-69
2024/02/16 03:03:25;;;;;;;;;;;;;;;19.14;49.80;100970.75;2069915;28;2106;-70
2024/02/16 03:04:26;;;;;;;;;;;;;;;19.13;49.77;100967.16;2067192;28;2050;-69
2024/02/16 03:05:28;;;;;;;;;;;;;;;19.14;49.73;100971.50;2070557;28;2227;-70
2024/02/16 03:06:29;;;;;;;;;;;;;;;19.13;49.70;100970.03;2069879;28;2030;-70
2024/02/16 03:07:30;;;;;;;;;;;;;;;19.13;49.81;100966.41;2069918;28;2133;-70
2024/02/16 03:08:32;;;;;;;;;;;;;;;19.12;49.84;100965.66;2070115;28;1870;-70
2024/02/16 03:09:34;;;;;;;;;;;;;;;19.12;49.82;100965.66;2066274;28;2021;-70
2024/02/16 03:10:36;;;;;;;;;;;;;;;19.12;49.86;100962.03;2069841;28;1871;-70
2024/02/16 03:11:37;;;;;;;;;;;;;;;19.11;49.80;100952.69;2068740;28;2018;-70
2024/02/16 03:12:39;;;;;;;;;;;;;;;19.12;49.84;100964.91;2068595;28;2065;-70
2024/02/16 03:13:40;;;;;;;;;;;;;;;19.11;49.79;100961.31;2068457;28;2065;-70
2024/02/16 03:14:42;;;;;;;;;;;;;;;19.11;49.83;100958.44;2067891;28;2058;-69
2024/02/16 03:15:43;;;;;;;;;;;;;;;19.10;49.81;100956.94;2068921;28;2002;-70
2024/02/16 03:16:45;;;;;;;;;;;;;;;19.11;49.89;100957.69;2069583;28;2062;-70
2024/02/16 03:17:46;;;;;;;;;;;;;;;19.10;49.74;100962.66;2071471;28;1617;-70
2024/02/16 03:18:48;;;;;;;;;;;;;;;19.10;49.82;100956.94;2072445;28;1728;-70
2024/02/16 03:19:49;;;;;;;;;;;;;;;19.09;49.85;100961.19;2068184;28;1925;-70
2024/02/16 03:20:51;;;;;;;;;;;;;;;19.08;49.85;100953.97;2068611;28;2117;-71
2024/02/16 03:21:52;;;;;;;;;;;;;;;19.09;49.75;100951.84;2070541;28;2116;-69
2024/02/16 03:22:54;;;;;;;;;;;;;;;19.09;49.85;100958.31;2070309;28;2087;-70
2024/02/16 03:23:55;;;;;;;;;;;;;;;19.09;49.75;100949.72;2070957;28;2117;-69
2024/02/16 03:24:56;;;;;;;;;;;;;;;19.09;49.81;100957.59;2070412;28;2081;-69
2024/02/16 03:25:58;;;;;;;;;;;;;;;19.09;49.76;100952.59;2072104;28;2101;-70
2024/02/16 03:27:00;;;;;;;;;;;;;;;19.09;49.80;100946.09;2073467;28;1652;-70
2024/02/16 03:28:01;;;;;;;;;;;;;;;19.10;49.67;100948.31;2070027;28;2249;-70
2024/02/16 03:29:03;;;;;;;;;;;;;;;19.10;49.69;100945.44;2070145;28;2079;-70
2024/02/16 03:30:05;;;;;;;;;;;;;;;19.10;49.67;100945.44;2069337;28;6422;-70
2024/02/16 03:31:07;;;;;;;;;;;;;;;19.08;49.72;100947.47;2070732;28;2174;-70
2024/02/16 03:32:09;;;;;;;;;;;;;;;19.09;49.83;100952.59;2070698;28;1661;-70
2024/02/16 03:33:10;;;;;;;;;;;;;;;19.08;49.75;100948.22;2069753;28;1723;-70
2024/02/16 03:34:12;;;;;;;;;;;;;;;19.11;49.65;100957.69;2067858;28;2333;-69
2024/02/16 03:35:14;;;;;;;;;;;;;;;19.09;49.72;100955.44;2069444;28;2076;-69
2024/02/16 03:36:15;;;;;;;;;;;;;;;19.07;49.84;100958.22;2069580;28;2086;-69
2024/02/16 03:37:16;;;;;;;;;;;;;;;19.07;49.83;100958.22;2071838;28;2213;-70
2024/02/16 03:38:18;;;;;;;;;;;;;;;19.06;49.74;100962.47;2070306;28;2164;-69
2024/02/16 03:39:20;;;;;;;;;;;;;;;19.06;49.90;100962.47;2070395;28;2218;-70
2024/02/16 03:40:25;;;;;;;;;;;;;;;19.06;49.85;100953.88;2070612;28;2149;-69
2024/02/16 03:41:27;;;;;;;;;;;;;;;19.08;50.00;100953.22;2071138;28;2176;-70
2024/02/16 03:42:28;;;;;;;;;;;;;;;19.09;49.73;100955.44;2069025;28;2129;-70
2024/02/16 03:43:29;;;;;;;;;;;;;;;19.09;49.68;100951.84;2071304;28;2078;-69
2024/02/16 03:44:31;;;;;;;;;;;;;;;19.09;49.73;100948.97;2069931;28;2441;-69
2024/02/16 03:45:32;;;;;;;;;;;;;;;19.10;49.79;100953.31;2068622;28;2164;-69
2024/02/16 03:46:34;;;;;;;;;;;;;;;19.11;49.72;100944.09;2069424;28;1988;-69
2024/02/16 03:47:35;;;;;;;;;;;;;;;19.11;49.80;100946.94;2072415;28;1804;-69
2024/02/16 03:48:37;;;;;;;;;;;;;;;19.12;49.67;100942.69;2070588;28;1881;-69
2024/02/16 03:49:39;;;;;;;;;;;;;;;19.11;49.75;100934.72;2070689;28;1930;-70
2024/02/16 03:50:40;;;;;;;;;;;;;;;19.13;49.65;100937.72;2071016;28;2021;-70
2024/02/16 03:51:42;;;;;;;;;;;;;;;19.13;49.69;100938.44;2067804;28;1661;-69
2024/02/16 03:52:43;;;;;;;;;;;;;;;19.13;49.70;100935.59;2069228;28;2155;-70
2024/02/16 03:53:45;;;;;;;;;;;;;;;19.14;49.68;100933.44;2067401;28;2102;-70
2024/02/16 03:54:48;;;;;;;;;;;;;;;19.15;49.64;100934.91;2066695;28;2207;-70
2024/02/16 03:55:50;;;;;;;;;;;;;;;19.14;49.69;100939.19;2068760;28;1985;-69
2024/02/16 03:56:54;;;;;;;;;;;;;;;19.15;49.72;100937.78;2068814;28;2132;-70
2024/02/16 03:57:56;;;;;;;;;;;;;;;19.15;49.61;100935.69;2071110;28;1998;-69
2024/02/16 03:58:57;;;;;;;;;;;;;;;19.15;49.59;100937.78;2070283;28;1980;-69
2024/02/16 03:59:59;;;;;;;;;;;;;;;19.15;49.66;100935.69;2067270;28;1881;-69
2024/02/16 04:01:00;;;;;;;;;;;;;;;19.15;49.53;100935.69;2067444;28;6126;-70
2024/02/16 04:02:02;;;;;;;;;;;;;;;19.15;49.57;100927.06;2069755;28;2341;-70
2024/02/16 04:03:04;;;;;;;;;;;;;;;19.15;49.61;100929.94;2070512;28;1922;-69
2024/02/16 04:04:05;;;;;;;;;;;;;;;19.15;49.73;100927.06;2068835;28;2074;-69
2024/02/16 04:05:07;;;;;;;;;;;;;;;19.14;49.67;100934.19;2070356;28;2230;-69
2024/02/16 04:06:09;;;;;;;;;;;;;;;19.14;49.76;100928.44;2071118;28;1941;-69
2024/02/16 04:07:12;;;;;;;;;;;;;;;19.15;49.69;100929.19;2069006;28;1948;-69
2024/02/16 04:08:13;;;;;;;;;;;;;;;19.15;49.65;100929.94;2068954;28;1939;-69
2024/02/16 04:09:15;;;;;;;;;;;;;;;19.15;49.62;100929.19;2070155;28;2338;-69
2024/02/16 04:10:16;;;;;;;;;;;;;;;19.14;49.75;100925.56;2069369;28;2031;-69
2024/02/16 04:11:18;;;;;;;;;;;;;;;19.15;49.63;100924.22;2069928;28;1844;-69
2024/02/16 04:12:19;;;;;;;;;;;;;;;19.15;49.73;100924.22;2070556;28;1859;-70
2024/02/16 04:13:21;;;;;;;;;;;;;;;19.15;49.70;100921.34;2067365;28;1994;-69
2024/02/16 04:14:22;;;;;;;;;;;;;;;19.17;49.79;100920.69;2068671;28;2026;-70
2024/02/16 04:15:23;;;;;;;;;;;;;;;19.16;49.64;100919.94;2070182;28;1972;-70
2024/02/16 04:16:25;;;;;;;;;;;;;;;19.17;49.67;100918.56;2068660;28;1869;-69
2024/02/16 04:17:26;;;;;;;;;;;;;;;19.17;49.71;100915.72;2070005;28;2068;-70
2024/02/16 04:18:28;;;;;;;;;;;;;;;19.17;49.69;100915.72;2070930;28;2167;-69
2024/02/16 04:19:29;;;;;;;;;;;;;;;19.18;49.74;100922.91;2070811;28;1965;-69
2024/02/16 04:20:31;;;;;;;;;;;;;;;19.17;49.71;100921.44;2069031;28;2030;-69
2024/02/16 04:21:32;;;;;;;;;;;;;;;19.19;49.60;100918.66;2071498;28;1652;-69
2024/02/16 04:22:37;;;;;;;;;;;;;;;19.19;49.65;100918.66;2070817;28;1696;-69
2024/02/16 04:23:38;;;;;;;;;;;;;;;19.20;49.71;100919.41;2069794;28;1917;-69
2024/02/16 04:24:40;;;;;;;;;;;;;;;19.20;49.66;100914.41;2070766;28;1980;-70
2024/02/16 04:25:41;;;;;;;;;;;;;;;19.22;49.68;100914.53;2070613;28;2008;-70
2024/02/16 04:26:42;;;;;;;;;;;;;;;19.21;49.70;100915.91;2068962;28;1950;-69
2024/02/16 04:27:44;;;;;;;;;;;;;;;19.22;49.71;100908.78;2069006;28;1997;-69
2024/02/16 04:28:45;;;;;;;;;;;;;;;19.21;49.75;100910.16;2066352;28;2302;-69
2024/02/16 04:29:47;;;;;;;;;;;;;;;19.23;49.80;100918.88;2066469;28;1953;-69
2024/02/16 04:30:48;;;;;;;;;;;;;;;19.22;49.75;100917.41;2069778;28;6250;-69
2024/02/16 04:31:49;;;;;;;;;;;;;;;19.23;49.80;100909.53;2068076;28;2080;-69
2024/02/16 04:32:51;;;;;;;;;;;;;;;19.23;49.79;100907.38;2072382;28;1624;-69
2024/02/16 04:33:53;;;;;;;;;;;;;;;19.22;49.76;100899.44;2068811;28;1949;-69
2024/02/16 04:34:55;;;;;;;;;;;;;;;19.22;49.87;100905.19;2069376;28;1944;-69
2024/02/16 04:35:57;;;;;;;;;;;;;;;19.22;49.89;100905.91;2066307;28;1968;-68
2024/02/16 04:36:58;;;;;;;;;;;;;;;19.23;49.92;100895.16;2067698;28;1952;-69
2024/02/16 04:38:00;;;;;;;;;;;;;;;19.22;49.83;100900.16;2071198;28;1940;-69
2024/02/16 04:39:01;;;;;;;;;;;;;;;19.23;49.81;100900.91;2068903;28;1870;-69
2024/02/16 04:40:03;;;;;;;;;;;;;;;19.21;49.91;100884.31;2075326;28;1913;-68
2024/02/16 04:41:05;;;;;;;;;;;;;;;19.21;49.91;100898.66;2079686;28;1660;-69
2024/02/16 04:42:07;;;;;;;;;;;;;;;19.21;49.92;100895.81;2071148;28;1638;-69
2024/02/16 04:43:08;;;;;;;;;;;;;;;19.21;49.91;100898.66;2070407;28;2025;-65
2024/02/16 04:44:09;;;;;;;;;;;;;;;19.20;49.90;100897.19;2068552;28;2083;-66
2024/02/16 04:45:12;;;;;;;;;;;;;;;19.22;49.75;100899.44;2068413;28;2073;-70
2024/02/16 04:46:15;;;;;;;;;;;;;;;19.21;49.86;100892.19;2067594;28;1787;-65
2024/02/16 04:47:17;;;;;;;;;;;;;;;19.21;49.85;100898.66;2072046;28;1689;-79
2024/02/16 04:48:18;;;;;;;;;;;;;;;19.20;49.86;100891.44;2072197;28;1926;-78
2024/02/16 04:49:21;;;;;;;;;;;;;;;19.20;49.83;100891.44;2068676;28;1928;-78
2024/02/16 04:50:23;;;;;;;;;;;;;;;19.20;49.90;100899.31;2071121;28;1957;-78
2024/02/16 04:51:24;;;;;;;;;;;;;;;19.20;49.83;100902.19;2071540;28;1819;-77
2024/02/16 04:52:26;;;;;;;;;;;;;;;19.20;49.83;100891.44;2070077;28;1999;-78
2024/02/16 04:53:31;;;;;;;;;;;;;;;19.20;49.86;100900.06;2068408;28;1920;-78
2024/02/16 04:54:32;;;;;;;;;;;;;;;19.20;49.87;100894.31;2067921;28;1960;-78
2024/02/16 04:55:34;;;;;;;;;;;;;;;19.22;49.79;100899.44;2067733;28;2002;-77
2024/02/16 04:56:35;;;;;;;;;;;;;;;19.21;49.74;100881.44;2070430;28;2176;-78
2024/02/16 04:57:36;;;;;;;;;;;;;;;19.22;49.70;100888.69;2070361;28;2279;-78
2024/02/16 04:58:41;;;;;;;;;;;;;;;19.22;49.75;100882.94;2070684;28;1911;-78
2024/02/16 04:59:43;;;;;;;;;;;;;;;19.23;49.68;100878.69;2070996;28;2047;-78
2024/02/16 05:00:46;;;;;;;;;;;;;;;19.24;49.75;100883.06;2069325;28;6137;-78
2024/02/16 05:01:48;;;;;;;;;;;;;;;19.25;49.70;100883.78;2067243;28;2037;-78
2024/02/16 05:02:50;;;;;;;;;;;;;;;19.25;49.79;100886.66;2070630;28;2031;-78
2024/02/16 05:03:51;;;;;;;;;;;;;;;19.25;49.80;100890.28;2070708;28;1671;-78
2024/02/16 05:04:54;;;;;;;;;;;;;;;19.27;49.80;100888.91;2071357;28;1976;-78
2024/02/16 05:05:55;;;;;;;;;;;;;;;19.27;49.73;100900.38;2071420;28;1577;-77
2024/02/16 05:06:57;;;;;;;;;;;;;;;19.27;49.79;100897.50;2070205;28;1625;-77
2024/02/16 05:08:00;;;;;;;;;;;;;;;19.27;49.64;100901.13;2072277;28;1647;-77
2024/02/16 05:09:01;;;;;;;;;;;;;;;19.28;49.71;100896.13;2069334;28;1976;-77
2024/02/16 05:10:03;;;;;;;;;;;;;;;19.28;49.89;100896.13;2069375;28;1648;-77
2024/02/16 05:11:04;;;;;;;;;;;;;;;19.28;49.84;100901.88;2068961;28;1967;-78
2024/02/16 05:12:06;;;;;;;;;;;;;;;19.29;49.85;100894.72;2071080;28;1944;-78
2024/02/16 05:13:08;;;;;;;;;;;;;;;19.28;49.87;100899.72;2068304;28;2008;-76
2024/02/16 05:14:11;;;;;;;;;;;;;;;19.28;49.99;100896.13;2069516;28;2011;-77
2024/02/16 05:15:13;;;;;;;;;;;;;;;19.27;49.95;100895.38;2069854;28;1995;-78
2024/02/16 05:16:14;;;;;;;;;;;;;;;19.27;49.98;100897.50;2071063;28;2094;-78
2024/02/16 05:17:16;;;;;;;;;;;;;;;19.25;49.98;100887.41;2069849;28;1979;-80
2024/02/16 05:18:17;;;;;;;;;;;;;;;19.28;49.86;100890.38;2068606;28;1932;-77
2024/02/16 05:19:20;;;;;;;;;;;;;;;19.28;49.91;100878.91;2069729;28;1905;-74
2024/02/16 05:20:22;;;;;;;;;;;;;;;19.12;49.85;100878.81;2071598;28;2019;-80
2024/02/16 05:21:23;;;;;;;;;;;;;;;18.83;49.69;100874.47;2069040;28;1883;-78